Time;durP1;ratioP1;P1;durP2;ratioP2;P2;SDS_P1;SDS_P2;PMS_P1;PMS_P2;Temp;Humidity;BMP_temperature;BMP_pressure;BME280_temperature;BME280_humidity;BME280_pressure;Samples;Min_cycle;Max_cycle;Signal;HPM_P1;HPM_P2
2023/03/01 00:01:30;;;;;;;29.80;16.73;;;-0.80;99.90;;;;;;5094789;28;20143;-65
2023/03/01 00:03:59;;;;;;;30.55;17.05;;;-0.80;99.90;;;;;;5098333;28;20036;-64
2023/03/01 00:06:27;;;;;;;33.47;18.50;;;-0.80;99.90;;;;;;5088297;28;20130;-63
2023/03/01 00:08:55;;;;;;;28.40;17.65;;;-0.80;99.90;;;;;;5089390;28;20059;-64
2023/03/01 00:11:25;;;;;;;28.92;16.48;;;-0.90;99.90;;;;;;5094403;28;20478;-65
2023/03/01 00:13:55;;;;;;;34.17;18.60;;;-0.90;99.90;;;;;;5089372;28;20100;-65
2023/03/01 00:16:28;;;;;;;28.35;16.83;;;-0.90;99.90;;;;;;5091185;28;20131;-64
2023/03/01 00:18:57;;;;;;;30.02;16.98;;;-0.90;99.90;;;;;;5090608;28;20466;-65
2023/03/01 00:21:25;;;;;;;31.15;17.48;;;-0.80;99.90;;;;;;5089727;28;20482;-63
2023/03/01 00:23:53;;;;;;;30.70;16.90;;;-0.90;99.90;;;;;;5091434;28;20047;-63
2023/03/01 00:26:22;;;;;;;30.25;17.67;;;-0.90;99.90;;;;;;5090779;28;20066;-63
2023/03/01 00:28:50;;;;;;;35.33;18.67;;;-0.90;99.90;;;;;;5091100;28;20036;-64
2023/03/01 00:31:20;;;;;;;31.05;18.85;;;-0.90;99.90;;;;;;5089048;28;20074;-65
2023/03/01 00:33:48;;;;;;;37.65;17.75;;;-1.00;99.90;;;;;;5089692;28;20093;-64
2023/03/01 00:36:16;;;;;;;29.75;17.13;;;-1.00;99.90;;;;;;5098555;28;20044;-62
2023/03/01 00:38:45;;;;;;;32.33;18.70;;;-1.00;99.90;;;;;;5090508;28;20040;-63
2023/03/01 00:41:15;;;;;;;27.25;16.05;;;-1.00;99.90;;;;;;5089329;28;20435;-64
2023/03/01 00:43:43;;;;;;;27.27;16.77;;;-1.00;99.90;;;;;;5091212;28;20430;-64
2023/03/01 00:46:19;;;;;;;29.27;17.38;;;-1.00;99.90;;;;;;5090588;28;20040;-63
2023/03/01 00:48:47;;;;;;;28.90;16.23;;;-1.00;99.90;;;;;;5089728;28;20068;-66
2023/03/01 00:51:23;;;;;;;29.52;17.58;;;-1.00;99.90;;;;;;5088202;28;20499;-65
2023/03/01 00:53:52;;;;;;;30.13;17.25;;;-1.00;99.90;;;;;;5089450;28;20036;-63
2023/03/01 00:56:20;;;;;;;30.17;16.80;;;-1.00;99.90;;;;;;5089610;28;20040;-63
2023/03/01 00:58:48;;;;;;;36.13;18.30;;;-1.00;99.90;;;;;;5089318;28;20429;-63
2023/03/01 01:01:21;;;;;;;32.10;18.20;;;-1.00;99.90;;;;;;5090273;28;20093;-64
2023/03/01 01:03:56;;;;;;;29.33;16.77;;;-1.00;99.90;;;;;;5089475;28;20062;-63
2023/03/01 01:06:29;;;;;;;29.77;17.25;;;-1.00;99.90;;;;;;5098100;28;20074;-63
2023/03/01 01:08:58;;;;;;;28.70;16.67;;;-1.00;99.90;;;;;;5086621;28;20206;-64
2023/03/01 01:11:27;;;;;;;29.77;17.63;;;-1.00;99.90;;;;;;5088074;28;20051;-64
2023/03/01 01:13:57;;;;;;;29.58;17.92;;;-1.10;99.90;;;;;;5089484;28;20410;-64
2023/03/01 01:16:26;;;;;;;30.10;17.70;;;-1.00;99.90;;;;;;5091615;28;20072;-63
2023/03/01 01:18:55;;;;;;;41.95;20.63;;;-1.10;99.90;;;;;;5109602;28;20112;-63
2023/03/01 01:21:24;;;;;;;34.58;18.77;;;-1.10;99.90;;;;;;5104685;28;20070;-65
2023/03/01 01:23:52;;;;;;;31.88;17.45;;;-1.00;99.90;;;;;;5089123;28;20085;-64
2023/03/01 01:26:26;;;;;;;36.15;18.95;;;-1.00;99.90;;;;;;5087846;28;20044;-65
2023/03/01 01:28:54;;;;;;;32.03;17.73;;;-1.10;99.90;;;;;;5088208;28;20113;-64
2023/03/01 01:31:25;;;;;;;30.50;18.20;;;-1.10;99.90;;;;;;5088401;28;20061;-63
2023/03/01 01:33:53;;;;;;;32.60;16.90;;;-1.10;99.90;;;;;;5088635;28;20040;-63
2023/03/01 01:36:21;;;;;;;33.65;18.02;;;-1.10;99.90;;;;;;5087251;28;20130;-64
2023/03/01 01:38:48;;;;;;;30.98;17.25;;;-1.10;99.90;;;;;;5088579;28;20040;-64
2023/03/01 01:41:16;;;;;;;31.55;17.83;;;-1.20;99.90;;;;;;5087912;28;20502;-65
2023/03/01 01:43:50;;;;;;;34.78;19.00;;;-1.20;99.90;;;;;;5091522;28;20050;-64
2023/03/01 01:46:17;;;;;;;29.40;16.20;;;-1.20;99.90;;;;;;5088390;28;20047;-65
2023/03/01 01:48:49;;;;;;;30.52;17.58;;;-1.20;99.90;;;;;;5087916;28;20143;-64
2023/03/01 01:51:25;;;;;;;29.75;17.90;;;-1.20;99.90;;;;;;5089083;28;20427;-64
2023/03/01 01:53:58;;;;;;;32.05;17.83;;;-1.20;99.90;;;;;;5098786;28;20059;-65
2023/03/01 01:56:28;;;;;;;31.50;18.67;;;-1.20;99.90;;;;;;5106452;28;20419;-65
2023/03/01 01:58:57;;;;;;;32.72;17.63;;;-1.30;99.90;;;;;;5087679;28;20097;-64
2023/03/01 02:01:25;;;;;;;32.33;17.55;;;-1.30;99.90;;;;;;5094648;28;20093;-66
2023/03/01 02:03:53;;;;;;;32.30;18.23;;;-1.30;99.90;;;;;;5108409;28;20123;-65
2023/03/01 02:06:36;;;;;;;31.20;17.13;;;-1.30;99.90;;;;;;5089724;28;20538;-63
2023/03/01 02:09:10;;;;;;;36.72;18.25;;;-1.30;99.90;;;;;;5086953;28;20055;-64
2023/03/01 02:11:38;;;;;;;33.33;17.40;;;-1.30;99.90;;;;;;5087990;28;20044;-64
2023/03/01 02:14:05;;;;;;;31.90;18.02;;;-1.30;99.90;;;;;;5094573;28;20040;-63
2023/03/01 02:16:33;;;;;;;38.67;19.73;;;-1.20;99.90;;;;;;5109958;28;20073;-65
2023/03/01 02:19:04;;;;;;;37.58;20.00;;;-1.20;99.90;;;;;;5108673;28;20111;-64
2023/03/01 02:21:49;;;;;;;34.00;19.38;;;-1.20;99.90;;;;;;5103018;28;20132;-64
2023/03/01 02:24:16;;;;;;;32.05;18.23;;;-1.20;99.90;;;;;;5088360;28;20127;-64
2023/03/01 02:26:51;;;;;;;30.23;18.23;;;-1.30;99.90;;;;;;5070312;28;20065;-64
2023/03/01 02:29:19;;;;;;;35.83;18.35;;;-1.30;99.90;;;;;;5087431;28;20119;-63
2023/03/01 02:31:47;;;;;;;32.13;18.52;;;-1.30;99.90;;;;;;5087842;28;20055;-63
2023/03/01 02:34:19;;;;;;;35.22;18.98;;;-1.30;99.90;;;;;;5085815;28;20071;-64
2023/03/01 02:37:20;;;;;;;34.67;18.13;;;-1.20;99.90;;;;;;5089060;28;20093;-64
2023/03/01 02:39:57;;;;;;;34.92;17.45;;;-1.20;99.90;;;;;;5074484;28;20071;-64
2023/03/01 02:42:35;;;;;;;35.17;18.38;;;-1.20;99.90;;;;;;5086582;28;20048;-63
2023/03/01 02:45:03;;;;;;;36.85;18.15;;;-1.10;99.90;;;;;;5106861;28;20118;-64
2023/03/01 02:47:30;;;;;;;35.97;18.42;;;-1.20;99.90;;;;;;5105267;28;20130;-64
2023/03/01 02:49:57;;;;;;;33.10;18.70;;;-1.20;99.90;;;;;;5071358;28;20055;-64
2023/03/01 02:52:43;;;;;;;32.70;17.83;;;-1.20;99.90;;;;;;5084716;28;20036;-63
2023/03/01 02:55:14;;;;;;;31.00;17.63;;;-1.30;99.90;;;;;;5102343;28;20039;-64
2023/03/01 02:57:43;;;;;;;;;;;-1.30;99.90;;;;;;5091906;28;20078;-64
2023/03/01 03:00:21;;;;;;;35.85;17.15;;;-1.30;99.90;;;;;;5105694;28;20329;-64
2023/03/01 03:02:51;;;;;;;34.55;18.23;;;-1.30;99.90;;;;;;5073925;28;20058;-63
2023/03/01 03:05:25;;;;;;;35.45;18.13;;;-1.30;99.90;;;;;;5100998;28;20066;-63
2023/03/01 03:07:56;;;;;;;32.47;16.83;;;-1.30;99.90;;;;;;5093285;28;20112;-64
2023/03/01 03:10:27;;;;;;;33.15;18.25;;;-1.40;99.90;;;;;;5090872;28;20056;-65
2023/03/01 03:13:00;;;;;;;31.10;18.05;;;-1.50;99.90;;;;;;5091525;28;20042;-63
2023/03/01 03:15:28;;;;;;;33.13;17.15;;;-1.40;99.90;;;;;;5090502;28;20083;-64
2023/03/01 03:17:57;;;;;;;29.33;17.75;;;-1.50;99.90;;;;;;5088849;28;20040;-64
2023/03/01 03:20:27;;;;;;;35.63;18.92;;;-1.50;99.90;;;;;;5091621;28;20459;-65
2023/03/01 03:22:58;;;;;;;32.42;18.40;;;-1.60;99.90;;;;;;5097206;28;20055;-63
2023/03/01 03:25:27;;;;;;;32.20;18.15;;;-1.60;99.90;;;;;;5091655;28;20349;-64
2023/03/01 03:27:58;;;;;;;33.58;18.05;;;-1.60;99.90;;;;;;5089539;28;20058;-63
2023/03/01 03:30:29;;;;;;;30.70;17.58;;;-1.60;99.90;;;;;;5090772;28;20044;-63
2023/03/01 03:32:58;;;;;;;37.30;19.10;;;-1.60;99.90;;;;;;5090639;28;20072;-64
2023/03/01 03:35:30;;;;;;;33.35;16.95;;;-1.60;99.90;;;;;;5091390;28;20405;-65
2023/03/01 03:38:09;;;;;;;32.47;18.35;;;-1.60;99.90;;;;;;5090919;28;20046;-64
2023/03/01 03:40:38;;;;;;;31.80;18.45;;;-1.60;99.90;;;;;;5091286;28;20394;-65
2023/03/01 03:43:08;;;;;;;30.05;17.45;;;-1.60;99.90;;;;;;5092262;28;20058;-64
2023/03/01 03:45:36;;;;;;;32.55;16.60;;;-1.60;99.90;;;;;;5091452;28;20490;-64
2023/03/01 03:48:06;;;;;;;32.13;17.83;;;-1.60;99.90;;;;;;5091075;28;20510;-64
2023/03/01 03:50:34;;;;;;;31.23;17.85;;;-1.70;99.90;;;;;;5089958;28;20092;-64
2023/03/01 03:53:03;;;;;;;29.67;17.05;;;-1.70;99.90;;;;;;5090996;28;20505;-62
2023/03/01 03:55:33;;;;;;;31.25;18.42;;;-1.80;99.90;;;;;;5087813;28;20054;-64
2023/03/01 03:58:06;;;;;;;30.90;17.52;;;-1.80;99.90;;;;;;5091665;28;20519;-63
2023/03/01 04:00:39;;;;;;;33.30;18.50;;;-1.90;99.90;;;;;;5088673;28;20036;-63
2023/03/01 04:03:08;;;;;;;32.10;18.52;;;-1.90;99.90;;;;;;5091417;28;20210;-63
2023/03/01 04:05:36;;;;;;;39.70;20.13;;;-2.00;99.90;;;;;;5100522;28;20043;-65
2023/03/01 04:08:07;;;;;;;39.30;19.90;;;-2.00;99.90;;;;;;5111029;28;20051;-63
2023/03/01 04:10:38;;;;;;;34.53;18.75;;;-2.00;99.90;;;;;;5093404;28;20051;-64
2023/03/01 04:13:06;;;;;;;33.42;18.85;;;-2.00;99.90;;;;;;5089923;28;20036;-63
2023/03/01 04:15:34;;;;;;;36.55;17.75;;;-2.00;99.90;;;;;;5089136;28;20052;-63
2023/03/01 04:18:02;;;;;;;29.10;17.70;;;-1.90;99.90;;;;;;5090963;28;20483;-63
2023/03/01 04:20:34;;;;;;;31.55;17.65;;;-1.90;99.90;;;;;;5088145;28;20514;-65
2023/03/01 04:23:10;;;;;;;;;;;-2.00;99.90;;;;;;5089234;28;20530;-63
2023/03/01 04:25:53;;;;;;;32.90;17.67;;;-1.90;99.90;;;;;;5089639;28;19965;-64
2023/03/01 04:28:44;;;;;;;31.20;18.63;;;-1.90;99.90;;;;;;5090803;28;20044;-65
2023/03/01 04:31:15;;;;;;;32.08;18.38;;;-1.90;99.90;;;;;;5086673;28;20486;-63
2023/03/01 04:33:48;;;;;;;32.78;18.63;;;-2.00;99.90;;;;;;5090284;28;20537;-64
2023/03/01 04:36:17;;;;;;;30.40;17.58;;;-2.00;99.90;;;;;;5088767;28;20130;-63
2023/03/01 04:38:48;;;;;;;34.05;17.40;;;-2.00;99.90;;;;;;5099553;28;20036;-65
2023/03/01 04:41:17;;;;;;;32.45;18.20;;;-2.00;99.90;;;;;;5108660;28;20614;-65
2023/03/01 04:43:45;;;;;;;32.03;17.65;;;-2.00;99.90;;;;;;5107657;28;20073;-63
2023/03/01 04:46:15;;;;;;;40.90;21.88;;;-2.00;99.90;;;;;;5109857;28;20117;-64
2023/03/01 04:48:44;;;;;;;41.83;22.95;;;-1.90;99.90;;;;;;5086743;28;20040;-63
2023/03/01 04:51:13;;;;;;;44.83;23.60;;;-1.90;99.90;;;;;;5088568;28;20080;-63
2023/03/01 04:53:41;;;;;;;44.08;22.05;;;-1.80;99.90;;;;;;5089506;28;20141;-64
2023/03/01 04:56:09;;;;;;;42.72;20.67;;;-1.90;99.90;;;;;;5106067;28;20050;-63
2023/03/01 04:58:36;;;;;;;37.38;20.15;;;-1.90;99.90;;;;;;5110393;28;20071;-64
2023/03/01 05:01:14;;;;;;;35.47;19.65;;;-1.90;99.90;;;;;;5102745;28;20046;-64
2023/03/01 05:03:44;;;;;;;34.25;18.02;;;-1.90;99.90;;;;;;5107802;28;20040;-64
2023/03/01 05:06:11;;;;;;;32.53;18.05;;;-2.00;99.90;;;;;;5091626;28;20487;-64
2023/03/01 05:08:40;;;;;;;37.58;18.85;;;-2.10;99.90;;;;;;5089064;28;20377;-63
2023/03/01 05:11:08;;;;;;;33.50;18.50;;;-2.10;99.90;;;;;;5088385;28;20513;-64
2023/03/01 05:13:37;;;;;;;32.85;18.92;;;-2.10;99.90;;;;;;5088862;28;20397;-63
2023/03/01 05:16:06;;;;;;;35.28;20.08;;;-2.20;99.90;;;;;;5089086;28;20522;-63
2023/03/01 05:18:33;;;;;;;35.33;18.17;;;-2.20;99.90;;;;;;5088589;28;20665;-63
2023/03/01 05:21:11;;;;;;;33.85;18.90;;;-2.10;99.90;;;;;;5087712;28;20040;-64
2023/03/01 05:23:38;;;;;;;32.50;18.63;;;-2.20;99.90;;;;;;5090200;28;20702;-64
2023/03/01 05:26:07;;;;;;;34.85;19.88;;;-2.20;99.90;;;;;;5088346;28;20441;-64
2023/03/01 05:28:48;;;;;;;39.55;19.85;;;-2.30;99.90;;;;;;5088781;28;20112;-65
2023/03/01 05:31:15;;;;;;;40.08;21.15;;;-2.30;99.90;;;;;;5087228;28;20048;-65
2023/03/01 05:33:43;;;;;;;45.40;22.42;;;-2.30;99.90;;;;;;5088505;28;20044;-65
2023/03/01 05:36:10;;;;;;;46.13;23.88;;;-2.30;99.90;;;;;;5088738;28;20047;-63
2023/03/01 05:38:38;;;;;;;48.67;24.33;;;-2.30;99.90;;;;;;5103605;28;20042;-64
2023/03/01 05:41:05;;;;;;;45.83;23.20;;;-2.30;99.90;;;;;;5108979;28;20046;-64
2023/03/01 05:43:35;;;;;;;42.72;24.08;;;-2.30;99.90;;;;;;5098960;28;20486;-63
2023/03/01 05:46:02;;;;;;;48.83;22.77;;;-2.40;99.90;;;;;;5090638;28;20554;-63
2023/03/01 05:48:30;;;;;;;40.85;21.88;;;-2.40;99.90;;;;;;5098257;28;20522;-63
2023/03/01 05:51:00;;;;;;;42.60;22.15;;;-2.40;99.90;;;;;;5095797;28;20147;-63
2023/03/01 05:53:27;;;;;;;41.75;22.23;;;-2.40;99.90;;;;;;5088129;28;20040;-64
2023/03/01 05:55:55;;;;;;;46.17;22.00;;;-2.40;99.90;;;;;;5088774;28;20126;-64
2023/03/01 05:58:22;;;;;;;43.13;21.23;;;-2.40;99.90;;;;;;5088071;28;20486;-63
2023/03/01 06:00:49;;;;;;;47.65;22.50;;;-2.50;99.90;;;;;;5088031;28;20036;-66
2023/03/01 06:03:19;;;;;;;47.45;23.25;;;-2.50;99.90;;;;;;5093222;28;20044;-63
2023/03/01 06:05:46;;;;;;;42.13;22.77;;;-2.50;99.90;;;;;;5094157;28;20032;-64
2023/03/01 06:08:14;;;;;;;42.22;23.15;;;-2.40;99.90;;;;;;5089741;28;20067;-64
2023/03/01 06:10:41;;;;;;;42.45;21.13;;;-2.40;99.90;;;;;;5090152;28;20070;-63
2023/03/01 06:13:08;;;;;;;49.20;20.85;;;-2.30;99.90;;;;;;5101503;28;20094;-64
2023/03/01 06:15:35;;;;;;;36.38;19.23;;;-2.30;99.90;;;;;;5089235;28;20125;-63
2023/03/01 06:18:03;;;;;;;41.95;20.52;;;-2.30;99.90;;;;;;5091357;28;20075;-62
2023/03/01 06:20:30;;;;;;;41.75;21.27;;;-2.30;99.90;;;;;;5089254;28;20583;-64
2023/03/01 06:22:58;;;;;;;41.85;21.83;;;-2.20;99.90;;;;;;5088809;28;20410;-63
2023/03/01 06:25:26;;;;;;;39.92;20.52;;;-2.10;99.90;;;;;;5089999;28;20062;-63
2023/03/01 06:27:54;;;;;;;39.70;20.48;;;-2.00;99.90;;;;;;5084796;28;20093;-64
2023/03/01 06:30:23;;;;;;;40.22;21.10;;;-2.00;99.90;;;;;;5085423;28;20052;-65
2023/03/01 06:32:52;;;;;;;43.15;20.88;;;-1.90;99.90;;;;;;5092499;28;20430;-64
2023/03/01 06:35:22;;;;;;;40.35;19.08;;;-1.90;99.90;;;;;;5093309;28;20036;-64
2023/03/01 06:37:49;;;;;;;39.50;20.40;;;-1.80;99.90;;;;;;5071007;28;20109;-63
2023/03/01 06:40:17;;;;;;;43.03;19.63;;;-1.70;99.90;;;;;;5089648;28;20040;-64
2023/03/01 06:42:49;;;;;;;39.15;21.00;;;-1.60;99.90;;;;;;5096021;28;20058;-64
2023/03/01 06:45:16;;;;;;;;;;;-1.60;99.90;;;;;;5097338;28;20051;-64
2023/03/01 06:47:43;;;;;;;42.92;19.58;;;-1.50;99.90;;;;;;5091330;28;19920;-64
2023/03/01 06:50:11;;;;;;;36.05;19.90;;;-1.40;99.90;;;;;;5092865;28;20119;-64
2023/03/01 06:52:39;;;;;;;35.10;19.05;;;-1.40;99.90;;;;;;5104014;28;20543;-65
2023/03/01 06:55:07;;;;;;;39.35;19.67;;;-1.30;99.90;;;;;;5102525;28;20083;-66
2023/03/01 06:57:35;;;;;;;35.53;18.65;;;-1.20;99.90;;;;;;5091727;28;20126;-66
2023/03/01 07:00:04;;;;;;;33.03;18.13;;;-1.20;99.90;;;;;;5095452;28;20560;-66
2023/03/01 07:02:31;;;;;;;36.22;20.63;;;-1.10;99.90;;;;;;5090230;28;20154;-66
2023/03/01 07:04:58;;;;;;;31.73;18.05;;;-1.00;99.90;;;;;;5098130;28;20046;-66
2023/03/01 07:07:26;;;;;;;32.40;18.48;;;-0.90;99.90;;;;;;5090705;28;20048;-66
2023/03/01 07:09:54;;;;;;;36.85;20.48;;;-0.90;99.90;;;;;;5092730;28;20040;-66
2023/03/01 07:12:21;;;;;;;37.75;20.23;;;-0.80;99.90;;;;;;5091838;28;20138;-67
2023/03/01 07:14:48;;;;;;;35.92;19.27;;;-0.70;99.90;;;;;;5092360;28;20048;-67
2023/03/01 07:17:16;;;;;;;40.17;22.08;;;-0.60;99.90;;;;;;5092611;28;20410;-67
2023/03/01 07:19:44;;;;;;;38.50;20.80;;;-0.50;99.90;;;;;;5092547;28;20357;-67
2023/03/01 07:22:12;;;;;;;41.85;21.58;;;-0.40;99.90;;;;;;5090769;28;20466;-66
2023/03/01 07:24:40;;;;;;;35.83;19.88;;;-0.30;99.90;;;;;;5091682;28;20383;-66
2023/03/01 07:27:07;;;;;;;35.33;19.83;;;-0.20;99.90;;;;;;5091167;28;20165;-66
2023/03/01 07:29:36;;;;;;;36.58;19.50;;;-0.10;99.90;;;;;;5091188;28;20067;-66
2023/03/01 07:32:04;;;;;;;34.40;20.10;;;-0.10;99.90;;;;;;5091390;28;20052;-67
2023/03/01 07:34:32;;;;;;;38.63;20.02;;;0.00;99.90;;;;;;5091939;28;20418;-66
2023/03/01 07:36:59;;;;;;;35.42;19.35;;;0.10;99.90;;;;;;5091669;28;20082;-66
2023/03/01 07:39:26;;;;;;;34.00;19.60;;;0.20;99.90;;;;;;5090449;28;20042;-67
2023/03/01 07:41:53;;;;;;;32.40;19.55;;;0.30;99.90;;;;;;5088031;28;20052;-66
2023/03/01 07:44:22;;;;;;;36.42;20.08;;;0.30;99.90;;;;;;5088761;28;20560;-66
2023/03/01 07:46:49;;;;;;;33.45;19.73;;;0.30;99.90;;;;;;5089906;28;20530;-66
2023/03/01 07:49:16;;;;;;;37.53;19.65;;;0.40;99.90;;;;;;5090190;28;20040;-66
2023/03/01 07:51:43;;;;;;;34.15;19.83;;;0.50;99.90;;;;;;5089418;28;20048;-67
2023/03/01 07:54:11;;;;;;;36.78;21.67;;;0.60;99.90;;;;;;5090136;28;20392;-66
2023/03/01 07:56:38;;;;;;;43.08;22.20;;;0.60;99.90;;;;;;5103918;28;20036;-65
2023/03/01 07:59:05;;;;;;;37.10;21.17;;;0.70;99.90;;;;;;5087047;28;20147;-65
2023/03/01 08:01:33;;;;;;;35.95;20.42;;;0.80;99.90;;;;;;5087256;28;20385;-66
2023/03/01 08:04:01;;;;;;;37.80;20.73;;;0.90;99.90;;;;;;5088641;28;20090;-65
2023/03/01 08:06:28;;;;;;;37.55;21.88;;;0.90;99.90;;;;;;5097761;28;20050;-65
2023/03/01 08:08:56;;;;;;;38.67;21.02;;;1.00;99.90;;;;;;5089859;28;20048;-68
2023/03/01 08:11:23;;;;;;;37.53;21.33;;;1.10;99.90;;;;;;5088289;28;20109;-66
2023/03/01 08:13:50;;;;;;;37.67;21.25;;;1.10;99.90;;;;;;5090393;28;20040;-66
2023/03/01 08:16:19;;;;;;;36.88;21.02;;;1.20;99.90;;;;;;5090320;28;20418;-67
2023/03/01 08:18:47;;;;;;;37.85;19.55;;;1.30;99.90;;;;;;5090315;28;20511;-66
2023/03/01 08:21:16;;;;;;;35.75;20.00;;;1.40;99.90;;;;;;5089246;28;20394;-66
2023/03/01 08:23:44;;;;;;;37.90;21.15;;;1.50;99.90;;;;;;5090371;28;20040;-65
2023/03/01 08:26:16;;;;;;;39.05;20.40;;;1.50;99.90;;;;;;5089080;28;20093;-65
2023/03/01 08:28:44;;;;;;;34.17;20.08;;;1.50;99.90;;;;;;5090409;28;20044;-65
2023/03/01 08:31:22;;;;;;;34.10;21.15;;;1.70;99.90;;;;;;5087544;28;20482;-66
2023/03/01 08:33:55;;;;;;;39.60;20.45;;;1.80;99.90;;;;;;5088015;28;20059;-66
2023/03/01 08:36:24;;;;;;;34.17;20.10;;;1.90;99.90;;;;;;5088735;28;20055;-66
2023/03/01 08:38:52;;;;;;;35.03;19.95;;;2.00;99.90;;;;;;5088966;28;20028;-65
2023/03/01 08:41:20;;;;;;;33.20;20.00;;;2.10;99.90;;;;;;5090407;28;20059;-65
2023/03/01 08:43:47;;;;;;;34.42;20.58;;;2.20;99.90;;;;;;5091657;28;20459;-66
2023/03/01 08:46:14;;;;;;;33.25;21.08;;;2.30;99.90;;;;;;5087893;28;20113;-65
2023/03/01 08:48:43;;;;;;;35.30;20.17;;;2.40;99.90;;;;;;5089366;28;20043;-66
2023/03/01 08:51:16;;;;;;;32.15;19.70;;;2.50;99.90;;;;;;5087627;28;20075;-66
2023/03/01 08:53:45;;;;;;;31.77;19.58;;;2.60;99.90;;;;;;5089582;28;20147;-65
2023/03/01 08:56:13;;;;;;;36.38;19.77;;;2.70;99.90;;;;;;5088274;28;20451;-65
2023/03/01 08:58:43;;;;;;;37.58;19.88;;;2.80;99.90;;;;;;5088120;28;20059;-65
2023/03/01 09:01:12;;;;;;;31.20;19.77;;;3.00;99.90;;;;;;5086796;28;20090;-66
2023/03/01 09:03:39;;;;;;;34.80;20.10;;;3.00;99.90;;;;;;5088142;28;20043;-66
2023/03/01 09:06:08;;;;;;;33.97;20.00;;;3.10;99.90;;;;;;5089585;28;20048;-65
2023/03/01 09:08:39;;;;;;;31.63;19.48;;;3.20;99.90;;;;;;5087109;28;20062;-66
2023/03/01 09:11:09;;;;;;;27.15;17.25;;;3.30;99.90;;;;;;5089058;28;20076;-65
2023/03/01 09:13:36;;;;;;;31.85;19.15;;;3.40;99.90;;;;;;5088723;28;20491;-66
2023/03/01 09:16:06;;;;;;;32.10;20.10;;;3.60;99.90;;;;;;5088602;28;20048;-61
2023/03/01 09:18:34;;;;;;;30.95;20.02;;;3.60;99.90;;;;;;5089045;28;20032;-65
2023/03/01 09:21:06;;;;;;;33.25;19.45;;;3.60;99.90;;;;;;5091659;28;20475;-65
2023/03/01 09:23:39;;;;;;;30.40;19.55;;;3.80;99.90;;;;;;5095573;28;20058;-64
2023/03/01 09:26:08;;;;;;;34.92;20.30;;;3.90;99.90;;;;;;5102297;28;20058;-66
2023/03/01 09:28:37;;;;;;;29.15;18.27;;;4.00;99.90;;;;;;5101005;28;20055;-66
2023/03/01 09:31:05;;;;;;;33.40;19.98;;;4.10;99.90;;;;;;5089519;28;20058;-65
2023/03/01 09:33:33;;;;;;;32.90;19.90;;;4.20;99.90;;;;;;5105627;28;20139;-66
2023/03/01 09:36:06;;;;;;;33.88;19.10;;;4.30;99.90;;;;;;5091685;28;20043;-66
2023/03/01 09:38:35;;;;;;;34.40;19.63;;;4.30;99.90;;;;;;5094714;28;20131;-66
2023/03/01 09:41:09;;;;;;;33.17;18.58;;;4.40;99.90;;;;;;5101402;28;20111;-66
2023/03/01 09:43:45;;;;;;;29.42;19.10;;;4.50;99.90;;;;;;5092688;28;20497;-65
2023/03/01 09:46:16;;;;;;;33.08;20.02;;;4.60;99.90;;;;;;5100350;28;20494;-65
2023/03/01 09:48:50;;;;;;;37.75;21.42;;;4.70;99.90;;;;;;5091476;28;20134;-65
2023/03/01 09:51:23;;;;;;;34.25;19.52;;;4.90;99.90;;;;;;5102031;28;20066;-66
2023/03/01 09:53:50;;;;;;;37.67;22.15;;;4.90;99.90;;;;;;5105227;28;20039;-66
2023/03/01 09:56:55;;;;;;;30.30;18.77;;;5.00;99.90;;;;;;5090759;28;20039;-65
2023/03/01 10:00:04;;;;;;;36.25;19.75;;;5.00;99.90;;;;;;5104384;28;20452;-66
2023/03/01 10:02:44;;;;;;;34.47;18.67;;;5.10;99.90;;;;;;5100960;28;20058;-66
2023/03/01 10:05:42;;;;;;;29.38;18.15;;;5.30;99.90;;;;;;5099630;28;20039;-66
2023/03/01 10:08:29;;;;;;;33.05;20.40;;;5.40;99.90;;;;;;5091525;28;20046;-66
2023/03/01 10:10:57;;;;;;;36.03;20.23;;;5.50;99.90;;;;;;5097702;28;20148;-65
2023/03/01 10:13:53;;;;;;;30.40;20.48;;;5.60;99.90;;;;;;5095832;28;20589;-65
2023/03/01 10:16:44;;;;;;;27.67;18.73;;;5.80;99.90;;;;;;5097727;28;20136;-66
2023/03/01 10:19:24;;;;;;;30.58;19.92;;;5.90;99.90;;;;;;5101313;28;20036;-66
2023/03/01 10:21:52;;;;;;;35.22;19.88;;;6.10;99.90;;;;;;5098976;28;20043;-65
2023/03/01 10:24:21;;;;;;;33.47;19.20;;;6.30;99.90;;;;;;5101108;28;20039;-66
2023/03/01 10:27:00;;;;;;;33.58;19.83;;;6.40;99.90;;;;;;5100272;28;20050;-66
2023/03/01 10:29:45;;;;;;;32.45;19.65;;;6.40;99.90;;;;;;5101150;28;20127;-66
2023/03/01 10:32:12;;;;;;;32.75;19.27;;;6.50;99.90;;;;;;5100510;28;20063;-67
2023/03/01 10:34:40;;;;;;;36.53;20.08;;;6.80;99.90;;;;;;5111702;28;20039;-66
2023/03/01 10:37:14;;;;;;;32.65;19.10;;;7.00;99.90;;;;;;5109891;28;20044;-67
2023/03/01 10:40:10;;;;;;;26.23;17.85;;;7.10;99.90;;;;;;5093362;28;20093;-66
2023/03/01 10:42:46;;;;;;;34.30;19.33;;;7.20;99.90;;;;;;5093315;28;20044;-66
2023/03/01 10:45:19;;;;;;;30.63;19.27;;;7.40;99.90;;;;;;5092222;28;20040;-67
2023/03/01 10:47:46;;;;;;;37.65;21.88;;;7.50;99.90;;;;;;5091003;28;20051;-67
2023/03/01 10:50:22;;;;;;;32.88;20.23;;;7.70;99.90;;;;;;5092132;28;20330;-66
2023/03/01 10:52:59;;;;;;;27.75;19.35;;;7.90;99.90;;;;;;5091893;28;20044;-66
2023/03/01 10:55:39;;;;;;;33.03;20.10;;;8.20;99.90;;;;;;5091448;28;20421;-66
2023/03/01 10:58:21;;;;;;;30.75;19.63;;;8.30;99.90;;;;;;5089648;28;20044;-66
2023/03/01 11:00:53;;;;;;;28.02;19.13;;;8.50;99.90;;;;;;5090351;28;20044;-67
2023/03/01 11:03:30;;;;;;;;;;;8.60;99.90;;;;;;5089889;28;20036;-66
2023/03/01 11:06:13;;;;;;;27.48;18.17;;;8.70;99.90;;;;;;5101344;28;19931;-67
2023/03/01 11:08:44;;;;;;;;;;;8.80;99.90;;;;;;5091170;28;20051;-67
2023/03/01 11:11:31;;;;;;;31.02;18.13;;;9.10;99.90;;;;;;5091033;28;19920;-67
2023/03/01 11:14:10;;;;;;;27.58;18.10;;;9.20;99.90;;;;;;5089963;28;20490;-67
2023/03/01 11:17:21;;;;;;;27.63;17.50;;;9.40;99.90;;;;;;5105655;28;20036;-69
2023/03/01 11:20:18;;;;;;;26.27;18.13;;;9.90;99.90;;;;;;5091349;28;20040;-69
2023/03/01 11:22:54;;;;;;;26.20;17.77;;;10.20;99.90;;;;;;5088794;28;20044;-69
2023/03/01 11:25:43;;;;;;;30.58;21.23;;;10.50;99.90;;;;;;5091053;28;20044;-66
2023/03/01 11:28:17;;;;;;;29.38;19.75;;;10.50;99.90;;;;;;5090690;28;20135;-66
2023/03/01 11:31:08;;;;;;;25.90;17.83;;;10.80;99.70;;;;;;5091095;28;20060;-67
2023/03/01 11:33:39;;;;;;;31.20;17.88;;;11.00;98.20;;;;;;5090820;28;20052;-67
2023/03/01 11:36:43;;;;;;;24.95;16.75;;;11.30;98.30;;;;;;5090669;28;20044;-66
2023/03/01 11:39:53;;;;;;;25.65;17.88;;;11.50;96.80;;;;;;5091202;28;20111;-67
2023/03/01 11:42:29;;;;;;;26.10;17.50;;;11.60;95.90;;;;;;5071235;28;20040;-67
2023/03/01 11:45:01;;;;;;;23.55;17.00;;;11.60;95.80;;;;;;5097703;28;20044;-67
2023/03/01 11:47:44;;;;;;;25.52;17.33;;;12.00;95.50;;;;;;5090362;28;20048;-67
2023/03/01 11:50:23;;;;;;;22.02;16.63;;;12.40;94.40;;;;;;5088145;28;20075;-67
2023/03/01 11:53:00;;;;;;;24.38;17.67;;;12.70;94.10;;;;;;5101666;28;20458;-67
2023/03/01 11:55:44;;;;;;;23.63;17.80;;;13.10;92.90;;;;;;5095824;28;20397;-68
2023/03/01 11:58:38;;;;;;;22.85;17.02;;;13.30;92.60;;;;;;5088623;28;20044;-67
2023/03/01 12:01:28;;;;;;;25.08;17.73;;;13.70;91.10;;;;;;5089936;28;20040;-67
2023/03/01 12:04:40;;;;;;;23.80;18.55;;;13.50;91.00;;;;;;5088878;28;20048;-67
2023/03/01 12:07:38;;;;;;;24.63;17.07;;;13.80;90.50;;;;;;5090803;28;20087;-67
2023/03/01 12:10:28;;;;;;;23.67;16.83;;;13.50;89.10;;;;;;5088907;28;20313;-67
2023/03/01 12:13:42;;;;;;;23.65;15.90;;;13.80;89.80;;;;;;5089244;28;20533;-66
2023/03/01 12:16:48;;;;;;;23.85;16.63;;;14.20;88.10;;;;;;5089023;28;20047;-66
2023/03/01 12:19:44;;;;;;;23.73;16.55;;;14.50;87.20;;;;;;5083150;28;20062;-66
2023/03/01 12:22:30;;;;;;;22.08;16.35;;;14.70;85.90;;;;;;5088863;28;20063;-66
2023/03/01 12:25:03;;;;;;;21.77;16.35;;;15.00;84.40;;;;;;5090032;28;20043;-67
2023/03/01 12:28:01;;;;;;;22.90;16.63;;;15.00;82.90;;;;;;5101052;28;20067;-67
2023/03/01 12:30:43;;;;;;;21.75;16.70;;;14.90;82.50;;;;;;5088865;28;20386;-66
2023/03/01 12:33:22;;;;;;;22.80;17.15;;;14.80;82.20;;;;;;5089516;28;20044;-67
2023/03/01 12:36:21;;;;;;;21.98;16.42;;;14.70;82.80;;;;;;5086938;28;20040;-67
2023/03/01 12:38:59;;;;;;;22.55;17.27;;;15.20;82.50;;;;;;5083884;28;20456;-66
2023/03/01 12:41:50;;;;;;;26.48;17.27;;;15.90;81.30;;;;;;5088421;28;20043;-66
2023/03/01 12:44:45;;;;;;;22.05;16.38;;;16.20;79.70;;;;;;5091787;28;20036;-67
2023/03/01 12:47:21;;;;;;;24.10;17.15;;;16.90;78.90;;;;;;5089206;28;20032;-66
2023/03/01 12:49:57;;;;;;;23.73;17.02;;;18.00;76.10;;;;;;5089658;28;20070;-67
2023/03/01 12:52:38;;;;;;;20.73;15.77;;;18.50;73.90;;;;;;5086480;28;20131;-68
2023/03/01 12:55:19;;;;;;;22.65;15.57;;;18.90;71.10;;;;;;5089028;28;20040;-66
2023/03/01 12:58:12;;;;;;;22.63;16.53;;;19.20;69.50;;;;;;5089928;28;20139;-67
2023/03/01 13:01:05;;;;;;;19.45;15.50;;;19.50;68.90;;;;;;5078548;28;20073;-68